Massack, California
Current Conditions -  °F | °C
As of 3:52 AM on Monday 24 Nov 2014 (Local Time) from KBLU Reporting Station
Clear Clear  
Wind Chill: 37°   Ceiling: Unl
Heat Index: 40°   Visibility: 10mi
Dew Point: 11°   Wind: 5mph
Humidity: 31%   Direction: 50°NE
Pressure: 30.35"   Gusts: NA
Location:  39.939°N, 120.918°W
Report Text: KBLU 241152Z AUTO 05004KT 10SM CLR 04/M12 A3035 RMK AO2 SLP257 T00441117 10067 20039 53001
Loading
Personal Weather Stations






























Interactive Weather Map New forecast layout! Learn more

10-Day Weather Forecast

Advertisements
Track Severe Weather on mobile